»·PEaware :: CGVZB PPIZ-PABR

CGVZB :: PPIZ-PABR

FLIGHT INFORMATION

Flight Status: Arrived
Operator: Unknown
More flights by this operator :: More flights under this callsign
Pilot: Alan S. (10569)
Aircraft: PILATUS PC-12 EAGLE
(PC12)
More flights by this aircraft type
Origin: PPIZ Point Lay
United States
Destination: PABR Wiley Post-Will Rogers Meml
United States
More flights between these airports :: More routes between these airports
Route: ATK PABR/ILS07
File this flight plan on PilotEdge
Remarks: EQUIP / G @twitch.tv / aerosimgaming
Altitude:
(Current/Filed)
17,000ft
Speed:
(Current/Filed)
260kts
Departed: 08-May-16 08:04 PM
Arrived: 08-May-16 09:12 PM
Distance/Time
Traveled:
156nm/1:07
Distance/Time
To Go:
Arrived

Flight Plot

Page will automatically refresh every two minutes.


Map Options




Map Legend


Flown Route
Filed Route
Departure Airport
Arrival Airport
Navaid (VOR, NDB)
Fix

Horizontal Profiles

Position Reports

Time Latitude Longitude Heading Altitude Ground
Speed
08-May-16 19:45 69.735879 -162.998728 245 29ft 0kts
08-May-16 19:46 69.735879 -162.998728 245 29ft 0kts
08-May-16 19:47 69.735879 -162.998728 245 29ft 0kts
08-May-16 19:48 69.735879 -162.998728 245 29ft 0kts
08-May-16 19:49 69.735879 -162.998728 245 29ft 0kts
08-May-16 19:50 69.735879 -162.998728 245 29ft 0kts
08-May-16 19:51 69.735879 -162.998728 245 29ft 0kts
08-May-16 19:52 69.735879 -162.998728 245 29ft 0kts
08-May-16 19:53 69.735879 -162.998728 245 29ft 0kts
08-May-16 19:54 69.735879 -162.998728 245 29ft 0kts
08-May-16 19:55 69.735879 -162.998728 245 29ft 0kts
08-May-16 19:56 69.735879 -162.998728 245 29ft 0kts
08-May-16 19:57 69.734468 -163.000072 163 29ft 4kts
08-May-16 19:58 69.734099 -162.999871 125 29ft 0kts
08-May-16 19:59 69.733085 -163.004068 241 29ft 6kts
08-May-16 20:00 69.731254 -163.017539 248 29ft 20kts
08-May-16 20:01 69.729667 -163.026103 262 29ft 0kts
08-May-16 20:02 69.730014 -163.026291 65 29ft 0kts
08-May-16 20:03 69.733637 -163.000692 65 155ft 93kts
08-May-16 20:04 69.747200 -162.919631 64 813ft 151kts
08-May-16 20:05 69.745339 -162.821155 148 2136ft 157kts
08-May-16 20:06 69.716276 -162.884401 272 3051ft 187kts
08-May-16 20:07 69.734788 -163.008798 311 4264ft 181kts
08-May-16 20:08 69.763844 -162.981426 78 5441ft 167kts
08-May-16 20:09 69.758924 -162.858751 79 6294ft 179kts
08-May-16 20:10 69.775138 -162.755194 54 7114ft 176kts
08-May-16 20:11 69.792828 -162.648066 56 8109ft 175kts
08-May-16 20:12 69.809496 -162.540506 49 9480ft 156kts
08-May-16 20:13 69.825872 -162.431534 54 10375ft 178kts
08-May-16 20:14 69.842100 -162.307923 55 11315ft 190kts
08-May-16 20:15 69.859874 -162.168522 55 12304ft 200kts
08-May-16 20:16 69.875375 -162.029576 59 13297ft 207kts
08-May-16 20:17 69.890087 -161.881045 59 14260ft 210kts
08-May-16 20:18 69.902208 -161.731237 64 15142ft 218kts
08-May-16 20:19 69.912609 -161.577794 63 15971ft 222kts
08-May-16 20:20 69.920168 -161.429843 69 16704ft 230kts
08-May-16 20:21 69.925663 -161.268408 70 17412ft 234kts
08-May-16 20:22 69.932497 -161.094075 70 17284ft 266kts
08-May-16 20:23 69.937178 -160.909067 76 17045ft 283kts
08-May-16 20:24 69.940223 -160.707763 72 16985ft 280kts
08-May-16 20:25 69.964683 -160.546272 66 16990ft 271kts
08-May-16 20:26 69.978273 -160.354990 66 16987ft 271kts
08-May-16 20:27 70.014235 -160.240219 21 16984ft 225kts
08-May-16 20:28 70.056453 -160.141283 38 16984ft 243kts
08-May-16 20:29 70.086711 -159.988924 50 16983ft 255kts
08-May-16 20:30 70.112382 -159.829751 51 16995ft 257kts
08-May-16 20:31 70.138573 -159.662826 51 16996ft 259kts
08-May-16 20:32 70.164761 -159.494227 51 16996ft 260kts
08-May-16 20:33 70.190236 -159.328878 52 16994ft 260kts
08-May-16 20:34 70.218749 -159.144871 52 16993ft 260kts
08-May-16 20:35 70.247551 -158.954669 52 16993ft 260kts
08-May-16 20:36 70.276423 -158.761830 52 16997ft 260kts
08-May-16 20:37 70.305367 -158.566555 52 17003ft 260kts
08-May-16 20:38 70.334220 -158.369910 52 17004ft 260kts
08-May-16 20:39 70.362908 -158.175100 53 17001ft 260kts
08-May-16 20:40 70.391214 -157.978692 53 17001ft 260kts
08-May-16 20:41 70.419309 -157.781217 53 17001ft 260kts
08-May-16 20:42 70.446681 -157.586804 53 17001ft 260kts
08-May-16 20:43 70.476789 -157.429615 10 17027ft 216kts
08-May-16 20:44 70.522876 -157.386594 3 17011ft 211kts
08-May-16 20:45 70.576451 -157.343456 3 17008ft 211kts
08-May-16 20:46 70.630888 -157.301639 3 17006ft 210kts
08-May-16 20:47 70.676385 -157.265853 3 17006ft 210kts
08-May-16 20:48 70.734555 -157.219510 3 16971ft 202kts
08-May-16 20:49 70.769467 -157.191993 4 16253ft 213kts
08-May-16 20:50 70.830723 -157.142706 5 14785ft 225kts
08-May-16 20:51 70.875250 -157.106598 5 13718ft 219kts
08-May-16 20:52 70.931313 -157.061216 5 12350ft 219kts
08-May-16 20:53 70.980538 -157.021426 8 11145ft 216kts
08-May-16 20:54 71.028283 -156.982395 11 9940ft 209kts
08-May-16 20:55 71.075841 -156.943259 13 8690ft 203kts
08-May-16 20:56 71.119094 -156.908932 15 7568ft 198kts
08-May-16 20:57 71.159513 -156.877794 15 6463ft 186kts
08-May-16 20:58 71.200430 -156.853209 14 5330ft 186kts
08-May-16 20:59 71.238838 -156.831305 14 4280ft 190kts
08-May-16 21:00 71.270326 -156.812434 8 3427ft 192kts
08-May-16 21:01 71.298394 -156.898497 263 2387ft 199kts
08-May-16 21:02 71.287705 -157.051254 248 2164ft 200kts
08-May-16 21:03 71.273106 -157.191199 267 1745ft 198kts
08-May-16 21:04 71.259807 -157.324595 206 1812ft 182kts
08-May-16 21:05 71.227738 -157.279836 92 1755ft 177kts
08-May-16 21:06 71.248839 -157.179178 48 1698ft 175kts
08-May-16 21:07 71.275695 -157.093286 46 1676ft 167kts
08-May-16 21:08 71.285911 -156.999072 95 1428ft 145kts
08-May-16 21:09 71.285582 -156.910846 91 760ft 99kts
08-May-16 21:10 71.284854 -156.832238 90 333ft 103kts
08-May-16 21:11 71.284723 -156.772101 90 47ft 31kts
08-May-16 21:12 71.286229 -156.757587 317 47ft 1kts

Navigation Log

Ident Type
Flight plan parsing failed, navigation log unavailable